createdAt,value
2019-01-14T00:00:50.002Z,7.50
2019-01-14T00:03:31.032Z,7.50
2019-01-14T00:05:58.639Z,7.30
2019-01-14T00:08:45.725Z,7.50
2019-01-14T00:11:26.921Z,7.50
2019-01-14T00:14:06.598Z,7.70
2019-01-14T00:19:27.879Z,7.70
2019-01-14T00:22:08.582Z,7.60
2019-01-14T00:24:49.318Z,7.40
2019-01-14T00:27:33.528Z,7.70
2019-01-14T00:30:14.474Z,7.80
2019-01-14T00:32:55.359Z,7.80
2019-01-14T00:35:36.477Z,7.70
2019-01-14T00:38:17.040Z,7.60
2019-01-14T00:41:02.306Z,7.70
2019-01-14T00:43:35.597Z,7.60
2019-01-14T00:46:22.934Z,7.50
2019-01-14T00:49:05.176Z,7.50
2019-01-14T00:51:46.214Z,7.30
2019-01-14T00:54:28.041Z,7.80
2019-01-14T00:57:10.678Z,7.80
2019-01-14T00:59:52.039Z,7.60
2019-01-14T01:02:33.723Z,7.60
2019-01-14T01:05:14.386Z,7.90
2019-01-14T01:07:54.566Z,7.50
2019-01-14T01:10:34.519Z,7.60
2019-01-14T01:13:14.446Z,7.00
2019-01-14T01:15:54.452Z,7.00
2019-01-14T01:18:34.750Z,7.30
2019-01-14T01:21:14.929Z,7.30
2019-01-14T01:23:55.522Z,7.20
2019-01-14T01:26:36.882Z,7.20
2019-01-14T01:29:17.414Z,6.90
2019-01-14T01:31:58.863Z,7.20
2019-01-14T01:34:39.803Z,7.10
2019-01-14T01:37:20.846Z,7.10
2019-01-14T01:40:02.193Z,7.30
2019-01-14T01:42:29.950Z,7.00
2019-01-14T01:45:16.822Z,7.00
2019-01-14T01:47:56.514Z,6.90
2019-01-14T01:50:36.546Z,6.90
2019-01-14T01:53:16.390Z,7.00
2019-01-14T01:55:57.294Z,6.90
2019-01-14T01:58:38.775Z,6.80
2019-01-14T02:01:24.319Z,6.70
2019-01-14T02:04:06.040Z,6.60
2019-01-14T02:06:49.474Z,6.50
2019-01-14T02:09:30.930Z,6.80
2019-01-14T02:12:10.862Z,6.30
2019-01-14T02:14:51.451Z,6.20
2019-01-14T02:17:31.090Z,6.70
2019-01-14T02:20:10.998Z,6.40
2019-01-14T02:25:52.887Z,6.70
2019-01-14T02:28:34.565Z,6.70
2019-01-14T02:31:15.496Z,6.50
2019-01-14T02:33:56.294Z,7.00
2019-01-14T02:36:37.435Z,6.60
2019-01-14T02:39:18.503Z,6.90
2019-01-14T02:41:58.521Z,6.70
2019-01-14T02:44:38.698Z,6.80
2019-01-14T02:47:18.933Z,6.90
2019-01-14T02:49:59.205Z,6.80
2019-01-14T02:52:39.711Z,7.20
2019-01-14T02:58:29.817Z,6.80
2019-01-14T03:01:18.667Z,6.90
2019-01-14T03:04:00.793Z,6.90
2019-01-14T03:06:41.162Z,7.10
2019-01-14T03:09:21.031Z,7.00
2019-01-14T03:12:00.934Z,7.10
2019-01-14T03:14:41.646Z,7.00
2019-01-14T03:17:21.338Z,7.00
2019-01-14T03:20:02.547Z,6.90
2019-01-14T03:22:43.706Z,7.00
2019-01-14T03:25:24.557Z,7.10
2019-01-14T03:28:08.983Z,7.10
2019-01-14T03:30:52.409Z,7.00
2019-01-14T03:33:33.714Z,7.00
2019-01-14T03:36:13.515Z,7.00
2019-01-14T03:38:53.849Z,6.60
2019-01-14T03:41:33.673Z,7.00
2019-01-14T03:44:13.638Z,7.00
2019-01-14T03:46:56.552Z,6.90
2019-01-14T03:49:37.952Z,6.80
2019-01-14T03:52:18.852Z,6.90
2019-01-14T03:54:59.956Z,6.70
2019-01-14T03:57:31.460Z,6.80
2019-01-14T04:00:20.557Z,7.00
2019-01-14T04:03:02.587Z,7.30
2019-01-14T04:05:31.108Z,7.20
2019-01-14T04:08:18.780Z,7.10
2019-01-14T04:10:58.864Z,7.00
2019-01-14T04:13:40.370Z,7.00
2019-01-14T04:16:20.886Z,7.00
2019-01-14T04:19:00.659Z,7.10
2019-01-14T04:21:42.187Z,6.80
2019-01-14T04:24:23.034Z,7.10
2019-01-14T04:27:04.131Z,7.30
2019-01-14T04:29:44.966Z,6.80
2019-01-14T04:32:25.974Z,7.00
2019-01-14T04:35:06.977Z,6.90
2019-01-14T04:37:38.875Z,7.30
2019-01-14T04:40:08.638Z,6.90
2019-01-14T04:42:49.390Z,6.90
2019-01-14T04:45:29.375Z,6.80
2019-01-14T04:48:09.201Z,6.90
2019-01-14T04:50:49.318Z,6.90
2019-01-14T04:53:28.703Z,6.70
2019-01-14T04:56:08.871Z,7.40
2019-01-14T04:58:49.506Z,6.80
2019-01-14T05:01:30.741Z,6.70
2019-01-14T05:04:11.978Z,7.10
2019-01-14T05:06:40.129Z,7.00
2019-01-14T05:09:28.779Z,7.10
2019-01-14T05:12:10.123Z,6.90
2019-01-14T05:14:51.427Z,7.00
2019-01-14T05:17:31.508Z,7.10
2019-01-14T05:20:11.067Z,7.10
2019-01-14T05:22:51.256Z,7.00
2019-01-14T05:25:31.610Z,7.10
2019-01-14T05:28:11.570Z,6.90
2019-01-14T05:30:52.794Z,7.20
2019-01-14T05:33:34.063Z,7.20
2019-01-14T05:36:15.294Z,7.20
2019-01-14T05:38:43.346Z,7.10
2019-01-14T05:41:32.031Z,7.20
2019-01-14T05:44:14.151Z,7.20
2019-01-14T05:46:55.054Z,6.90
2019-01-14T05:49:35.118Z,7.10
2019-01-14T05:52:15.616Z,6.90
2019-01-14T05:54:55.914Z,7.10
2019-01-14T05:57:36.146Z,7.20
2019-01-14T06:00:16.598Z,7.00
2019-01-14T06:02:57.291Z,7.00
2019-01-14T06:05:42.684Z,7.10
2019-01-14T06:08:24.003Z,7.10
2019-01-14T06:11:04.729Z,7.10
2019-01-14T06:13:46.261Z,7.10
2019-01-14T06:16:27.182Z,7.00
2019-01-14T06:19:07.781Z,6.90
2019-01-14T06:21:47.736Z,7.00
2019-01-14T06:24:27.862Z,6.90
2019-01-14T06:27:08.168Z,7.00
2019-01-14T06:29:38.320Z,6.60
2019-01-14T06:32:25.251Z,6.90
2019-01-14T06:35:07.099Z,7.00
2019-01-14T06:37:52.338Z,7.00
2019-01-14T06:40:31.541Z,6.70
2019-01-14T06:43:12.098Z,6.80
2019-01-14T06:45:53.470Z,7.00
2019-01-14T06:48:34.459Z,7.00
2019-01-14T06:51:15.714Z,7.10
2019-01-14T06:53:55.771Z,6.60
2019-01-14T06:56:35.590Z,7.30
2019-01-14T06:59:15.254Z,7.00
2019-01-14T07:02:02.627Z,7.00
2019-01-14T07:04:51.487Z,7.00
2019-01-14T07:07:34.067Z,7.30
2019-01-14T07:10:14.591Z,7.10
2019-01-14T07:12:55.776Z,7.00
2019-01-14T07:15:24.228Z,7.40
2019-01-14T07:18:12.743Z,6.80
2019-01-14T07:20:54.738Z,6.80
2019-01-14T07:23:36.856Z,6.80
2019-01-14T07:26:16.960Z,7.00
2019-01-14T07:28:56.806Z,6.60
2019-01-14T07:31:24.322Z,6.60
2019-01-14T07:34:03.876Z,6.50
2019-01-14T07:36:44.050Z,6.40
2019-01-14T07:39:25.095Z,6.30
2019-01-14T07:42:06.259Z,6.20
2019-01-14T07:44:46.971Z,6.10
2019-01-14T07:47:28.160Z,6.20
2019-01-14T07:50:09.082Z,6.10
2019-01-14T07:52:50.084Z,6.10
2019-01-14T07:55:31.314Z,6.10
2019-01-14T07:58:11.666Z,6.10
2019-01-14T08:00:51.506Z,6.20
2019-01-14T08:03:31.807Z,6.30
2019-01-14T08:06:16.094Z,6.20
2019-01-14T08:08:55.875Z,6.20
2019-01-14T08:11:36.842Z,6.00
2019-01-14T08:14:18.074Z,6.30
2019-01-14T08:16:59.564Z,5.70
2019-01-14T08:19:41.343Z,5.80
2019-01-14T08:22:21.990Z,6.10
2019-01-14T08:25:03.018Z,5.90
2019-01-14T08:27:44.181Z,5.60
2019-01-14T08:30:24.467Z,5.80
2019-01-14T08:33:04.531Z,6.00
2019-01-14T08:35:44.469Z,5.90
2019-01-14T08:38:24.161Z,5.90
2019-01-14T08:41:04.584Z,5.90
2019-01-14T08:50:14.561Z,5.60
2019-01-14T08:53:01.832Z,5.90
2019-01-14T08:55:42.624Z,5.40
2019-01-14T08:58:25.257Z,5.90
2019-01-14T09:01:06.603Z,6.00
2019-01-14T09:03:47.678Z,5.80
2019-01-14T09:06:28.886Z,6.00
2019-01-14T09:09:09.626Z,5.80
2019-01-14T09:11:51.002Z,5.70
2019-01-14T09:14:31.491Z,5.70
2019-01-14T09:17:13.621Z,5.70
2019-01-14T09:19:55.540Z,5.60
2019-01-14T09:22:35.551Z,5.50
2019-01-14T09:25:15.514Z,5.70
2019-01-14T09:27:55.578Z,5.90
2019-01-14T09:30:24.826Z,5.70
2019-01-14T09:33:11.662Z,5.70
2019-01-14T09:36:00.354Z,5.70
2019-01-14T09:38:41.873Z,5.70
2019-01-14T09:41:24.071Z,5.80
2019-01-14T09:44:05.610Z,5.70
2019-01-14T09:49:30.239Z,5.90
2019-01-14T09:52:10.355Z,5.80
2019-01-14T09:54:50.203Z,5.90
2019-01-14T09:57:30.340Z,5.80
2019-01-14T10:00:11.263Z,5.90
2019-01-14T10:02:38.438Z,5.90
2019-01-14T10:05:08.006Z,5.90
2019-01-14T10:07:48.203Z,6.10
2019-01-14T10:10:29.012Z,5.90
2019-01-14T10:13:10.134Z,6.00
2019-01-14T10:15:51.159Z,6.00
2019-01-14T10:18:32.283Z,6.10
2019-01-14T10:21:03.199Z,5.80
2019-01-14T10:23:51.806Z,6.10
2019-01-14T10:26:23.774Z,6.10
2019-01-14T10:29:21.695Z,6.10
2019-01-14T10:32:01.600Z,6.00
2019-01-14T10:34:41.718Z,5.80
2019-01-14T10:37:22.910Z,5.90
2019-01-14T10:39:56.969Z,6.20
2019-01-14T10:42:45.518Z,6.40
2019-01-14T10:45:19.103Z,6.30
2019-01-14T10:48:08.094Z,6.30
2019-01-14T10:50:37.081Z,6.30
2019-01-14T10:53:26.018Z,6.10
2019-01-14T10:56:07.686Z,6.00
2019-01-14T10:58:47.509Z,6.00
2019-01-14T11:01:27.315Z,6.20
2019-01-14T11:04:07.257Z,6.20
2019-01-14T11:06:47.604Z,6.30
2019-01-14T11:09:27.854Z,6.40
2019-01-14T11:12:08.191Z,6.40
2019-01-14T11:14:49.347Z,6.50
2019-01-14T11:17:19.815Z,6.30
2019-01-14T11:20:14.102Z,6.40
2019-01-14T11:22:56.447Z,6.20
2019-01-14T11:25:37.520Z,6.40
2019-01-14T11:28:18.491Z,6.40
2019-01-14T11:30:45.950Z,6.50
2019-01-14T11:33:15.978Z,6.40
2019-01-14T11:36:02.984Z,6.30
2019-01-14T11:38:42.519Z,6.30
2019-01-14T11:41:22.546Z,6.30
2019-01-14T11:43:55.342Z,6.10
2019-01-14T11:46:42.262Z,6.20
2019-01-14T11:49:22.631Z,6.20
2019-01-14T11:52:02.378Z,6.20
2019-01-14T11:54:54.910Z,6.40
2019-01-14T11:57:43.477Z,6.60
2019-01-14T12:00:36.606Z,6.20
2019-01-14T12:03:13.990Z,5.90
2019-01-14T12:05:55.483Z,6.10
2019-01-14T12:08:35.238Z,6.00
2019-01-14T12:11:15.389Z,6.10
2019-01-14T12:13:55.466Z,6.10
2019-01-14T12:16:35.305Z,6.20
2019-01-14T12:19:15.244Z,6.40
2019-01-14T12:21:47.262Z,6.40
2019-01-14T12:24:36.383Z,6.50
2019-01-14T12:27:25.774Z,6.50
2019-01-14T12:30:19.486Z,6.40
2019-01-14T12:33:03.101Z,6.40
2019-01-14T12:35:43.814Z,6.20
2019-01-14T12:41:03.858Z,6.50
2019-01-14T12:43:45.063Z,6.20
2019-01-14T12:46:25.382Z,6.40
2019-01-14T12:49:06.359Z,6.20
2019-01-14T12:51:47.193Z,6.50
2019-01-14T12:54:28.526Z,6.40
2019-01-14T12:57:09.564Z,6.00
2019-01-14T12:59:50.581Z,6.20
2019-01-14T13:02:31.752Z,6.20
2019-01-14T13:05:12.620Z,6.10
2019-01-14T13:07:52.532Z,6.00
2019-01-14T13:10:32.732Z,5.70
2019-01-14T13:13:12.963Z,5.50
2019-01-14T13:15:45.219Z,6.00
2019-01-14T13:18:32.422Z,6.00
2019-01-14T13:21:03.129Z,6.30
2019-01-14T13:23:43.186Z,6.00
2019-01-14T13:26:24.356Z,6.00
2019-01-14T13:29:05.564Z,6.00
2019-01-14T13:31:46.487Z,6.00
2019-01-14T13:34:27.277Z,6.20
2019-01-14T13:37:08.583Z,5.70
2019-01-14T13:39:52.574Z,6.50
2019-01-14T13:42:21.313Z,6.20
2019-01-14T13:45:11.346Z,6.30
2019-01-14T13:47:51.429Z,6.40
2019-01-14T13:50:31.515Z,6.10
2019-01-14T13:53:11.586Z,6.60
2019-01-14T13:55:51.684Z,6.60
2019-01-14T13:58:43.622Z,6.30
2019-01-14T14:01:32.394Z,6.30
2019-01-14T14:04:14.145Z,6.30
2019-01-14T14:06:45.138Z,6.50
2019-01-14T14:09:26.224Z,6.30
2019-01-14T14:12:07.175Z,6.10
2019-01-14T14:14:47.819Z,6.00
2019-01-14T14:17:27.467Z,6.50
2019-01-14T14:20:07.568Z,6.30
2019-01-14T14:22:47.920Z,6.40
2019-01-14T14:25:27.642Z,6.50
2019-01-14T14:27:59.314Z,6.20
2019-01-14T14:30:47.879Z,6.10
2019-01-14T14:33:18.442Z,6.10
2019-01-14T14:36:07.044Z,6.10
2019-01-14T14:38:37.196Z,6.20
2019-01-14T14:41:27.168Z,6.10
2019-01-14T14:44:32.418Z,5.90
2019-01-14T14:47:11.778Z,6.10
2019-01-14T14:49:52.316Z,6.10
2019-01-14T14:52:32.052Z,6.10
2019-01-14T14:55:12.933Z,6.30
2019-01-14T14:57:41.397Z,6.00
2019-01-14T15:00:30.310Z,6.00
2019-01-14T15:03:12.179Z,6.10
2019-01-14T15:05:53.291Z,6.20
2019-01-14T15:08:35.163Z,6.20
2019-01-14T15:11:16.107Z,6.00
2019-01-14T15:13:56.186Z,5.80
2019-01-14T15:16:36.423Z,5.80
2019-01-14T15:19:16.493Z,5.80
2019-01-14T15:21:56.675Z,5.90
2019-01-14T15:24:36.605Z,5.70
2019-01-14T15:27:18.016Z,6.00
2019-01-14T15:29:58.826Z,5.80
2019-01-14T15:32:39.923Z,5.70
2019-01-14T15:35:21.288Z,5.50
2019-01-14T15:38:02.337Z,6.00
2019-01-14T15:40:43.321Z,5.60
2019-01-14T15:43:24.654Z,5.60
2019-01-14T15:46:04.511Z,5.40
2019-01-14T15:48:44.529Z,5.60
2019-01-14T15:51:25.268Z,5.50
2019-01-14T15:54:05.505Z,5.60
2019-01-14T15:56:45.703Z,5.20
2019-01-14T15:59:26.734Z,5.50
2019-01-14T16:02:07.821Z,5.80
2019-01-14T16:04:52.363Z,6.00
2019-01-14T16:07:33.466Z,5.30
2019-01-14T16:10:14.795Z,5.60
2019-01-14T16:12:56.028Z,5.50
2019-01-14T16:15:35.662Z,5.90
2019-01-14T16:18:18.263Z,5.20
2019-01-14T16:20:58.755Z,5.50
2019-01-14T16:23:38.630Z,5.60
2019-01-14T16:26:18.418Z,5.30
2019-01-14T16:28:58.454Z,5.30
2019-01-14T16:31:39.330Z,5.50
2019-01-14T16:34:20.518Z,5.50
2019-01-14T16:37:01.459Z,5.40
2019-01-14T16:39:42.561Z,5.40
2019-01-14T16:42:23.775Z,5.40
2019-01-14T16:45:04.783Z,5.70
2019-01-14T16:47:45.608Z,5.40
2019-01-14T16:50:25.722Z,5.40
2019-01-14T16:53:05.692Z,5.10
2019-01-14T16:55:48.613Z,5.00
2019-01-14T16:58:28.072Z,5.20
2019-01-14T17:01:08.163Z,4.90
2019-01-14T17:03:48.997Z,5.40
2019-01-14T17:06:30.191Z,5.30
2019-01-14T17:09:11.230Z,5.20
2019-01-14T17:11:52.404Z,5.20
2019-01-14T17:14:33.275Z,5.00
2019-01-14T17:17:14.379Z,5.00
2019-01-14T17:19:55.603Z,5.40
2019-01-14T17:22:35.870Z,5.30
2019-01-14T17:25:04.363Z,5.30
2019-01-14T17:27:51.034Z,5.10
2019-01-14T17:30:30.630Z,5.10
2019-01-14T17:33:10.450Z,5.20
2019-01-14T17:35:51.402Z,5.20
2019-01-14T17:38:32.920Z,5.10
2019-01-14T17:41:13.642Z,5.00
2019-01-14T17:43:54.629Z,5.10
2019-01-14T17:46:41.162Z,5.20
2019-01-14T17:49:22.338Z,5.00
2019-01-14T17:52:03.906Z,5.00
2019-01-14T17:54:43.527Z,5.20
2019-01-14T17:57:24.100Z,4.90
2019-01-14T18:00:04.443Z,5.10
2019-01-14T18:02:44.592Z,5.50
2019-01-14T18:05:24.615Z,5.30
2019-01-14T18:08:05.687Z,5.20
2019-01-14T18:10:39.844Z,5.10
2019-01-14T18:13:28.587Z,5.30
2019-01-14T18:16:10.809Z,5.10
2019-01-14T18:18:40.023Z,5.50
2019-01-14T18:21:28.631Z,5.10
2019-01-14T18:23:59.084Z,5.10
2019-01-14T18:26:47.814Z,5.00
2019-01-14T18:29:27.930Z,5.00
2019-01-14T18:32:07.811Z,4.90
2019-01-14T18:34:48.028Z,4.90
2019-01-14T18:37:34.054Z,4.90
2019-01-14T18:40:15.491Z,4.90
2019-01-14T18:42:56.546Z,4.90
2019-01-14T18:45:37.643Z,5.30
2019-01-14T18:48:18.523Z,5.20
2019-01-14T18:50:59.824Z,4.60
2019-01-14T18:53:47.830Z,4.80
2019-01-14T18:56:34.506Z,4.90
2019-01-14T18:59:14.182Z,4.60
2019-01-14T19:01:53.911Z,4.80
2019-01-14T19:04:34.000Z,4.70
2019-01-14T19:07:14.139Z,4.90
2019-01-14T19:09:55.211Z,4.70
2019-01-14T19:12:36.411Z,4.90
2019-01-14T19:15:17.573Z,5.00
2019-01-14T19:17:47.338Z,4.90
2019-01-14T19:20:36.159Z,4.90
2019-01-14T19:23:07.461Z,4.70
2019-01-14T19:25:56.098Z,5.00
2019-01-14T19:28:25.724Z,4.80
2019-01-14T19:31:12.343Z,4.90
2019-01-14T19:33:51.936Z,5.00
2019-01-14T19:36:31.758Z,5.30
2019-01-14T19:39:11.739Z,4.90
2019-01-14T19:41:52.239Z,4.50
2019-01-14T19:44:33.231Z,4.80
2019-01-14T19:47:14.344Z,4.90
2019-01-14T19:49:55.360Z,4.90
2019-01-14T19:52:23.440Z,4.50
2019-01-14T19:55:12.842Z,5.00
2019-01-14T19:58:03.345Z,4.80
2019-01-14T20:00:50.020Z,5.00
2019-01-14T20:03:29.703Z,4.60
2019-01-14T20:06:09.614Z,5.20
2019-01-14T20:08:56.303Z,5.00
2019-01-14T20:11:59.285Z,5.00
2019-01-14T20:14:46.907Z,4.80
2019-01-14T20:17:14.841Z,4.70
2019-01-14T20:20:16.528Z,4.80
2019-01-14T20:22:43.809Z,5.40
2019-01-14T20:25:23.495Z,4.90
2019-01-14T20:28:03.250Z,4.40
2019-01-14T20:30:30.574Z,4.60
2019-01-14T20:33:19.507Z,4.80
2019-01-14T20:36:05.875Z,4.90
2019-01-14T20:38:48.717Z,4.80
2019-01-14T20:41:29.915Z,5.00
2019-01-14T20:44:10.805Z,5.00
2019-01-14T20:46:52.105Z,5.50
2019-01-14T20:49:41.731Z,5.00
2019-01-14T20:52:29.496Z,5.30
2019-01-14T20:55:09.407Z,5.50
2019-01-14T20:57:39.842Z,5.00
2019-01-14T21:00:26.516Z,5.10
2019-01-14T21:03:06.265Z,5.20
2019-01-14T21:05:47.458Z,5.00
2019-01-14T21:08:17.542Z,4.40
2019-01-14T21:14:10.389Z,4.80
2019-01-14T21:16:51.438Z,4.70
2019-01-14T21:19:32.722Z,4.60
2019-01-14T21:22:12.323Z,4.60
2019-01-14T21:24:52.811Z,4.20
2019-01-14T21:27:32.876Z,4.20
2019-01-14T21:30:12.826Z,4.40
2019-01-14T21:32:52.950Z,4.50
2019-01-14T21:35:33.918Z,4.50
2019-01-14T21:38:14.820Z,4.50
2019-01-14T21:40:43.215Z,4.30
2019-01-14T21:43:39.046Z,4.50
2019-01-14T21:46:08.441Z,4.80
2019-01-14T21:48:57.235Z,4.40
2019-01-14T21:51:38.839Z,4.20
2019-01-14T21:54:18.911Z,4.20
2019-01-14T21:56:58.843Z,4.20
2019-01-14T21:59:38.922Z,4.30
2019-01-14T22:02:19.627Z,4.40
2019-01-14T22:04:59.334Z,4.30
2019-01-14T22:07:39.446Z,4.30
2019-01-14T22:10:20.622Z,4.20
2019-01-14T22:13:01.692Z,4.30
2019-01-14T22:15:42.858Z,4.30
2019-01-14T22:18:23.943Z,4.00
2019-01-14T22:21:05.568Z,4.20
2019-01-14T22:23:46.503Z,4.30
2019-01-14T22:26:13.530Z,4.00
2019-01-14T22:29:00.355Z,4.20
2019-01-14T22:31:40.420Z,4.20
2019-01-14T22:34:20.506Z,4.10
2019-01-14T22:37:00.551Z,3.80
2019-01-14T22:39:40.637Z,3.70
2019-01-14T22:42:20.544Z,3.90
2019-01-14T22:45:01.547Z,4.00
2019-01-14T22:47:42.594Z,3.80
2019-01-14T22:50:23.641Z,3.60
2019-01-14T22:53:04.807Z,3.80
2019-01-14T22:55:46.099Z,4.10
2019-01-14T22:58:27.266Z,4.00
2019-01-14T23:01:12.962Z,4.00
2019-01-14T23:03:54.260Z,3.70
2019-01-14T23:06:34.001Z,4.10
2019-01-14T23:09:16.131Z,4.10
2019-01-14T23:11:43.557Z,4.10
2019-01-14T23:14:10.872Z,4.20
2019-01-14T23:16:50.997Z,4.00
2019-01-14T23:19:17.922Z,4.00
2019-01-14T23:22:04.615Z,3.90
2019-01-14T23:24:44.400Z,3.90
2019-01-14T23:27:25.643Z,3.70
2019-01-14T23:30:06.410Z,3.80
2019-01-14T23:32:47.436Z,4.00
2019-01-14T23:35:28.578Z,3.80
2019-01-14T23:38:09.690Z,3.50
2019-01-14T23:40:50.656Z,3.70
2019-01-14T23:43:31.770Z,3.70
2019-01-14T23:46:12.150Z,3.70
2019-01-14T23:48:52.005Z,3.60
2019-01-14T23:51:33.512Z,3.60
2019-01-14T23:54:13.014Z,3.60
2019-01-14T23:56:40.049Z,3.20
2019-01-14T23:59:26.720Z,3.60
